Time;durP1;ratioP1;P1;durP2;ratioP2;P2;SDS_P1;SDS_P2;PMS_P1;PMS_P2;Temp;Humidity;BMP_temperature;BMP_pressure;BME280_temperature;BME280_humidity;BME280_pressure;Samples;Min_cycle;Max_cycle;Signal;HPM_P1;HPM_P2
2022/05/30 00:01:36;;;;;;;2.17;0.70;;;7.60;99.90;;;;;;5106021;28;20052;-70
2022/05/30 00:04:02;;;;;;;0.70;0.50;;;7.70;99.90;;;;;;5097307;28;20463;-70
2022/05/30 00:06:29;;;;;;;1.05;0.38;;;7.70;99.90;;;;;;5111479;28;20040;-70
2022/05/30 00:08:55;;;;;;;0.50;0.20;;;7.60;99.90;;;;;;5103923;28;20040;-70
2022/05/30 00:11:22;;;;;;;0.70;0.30;;;7.60;99.90;;;;;;5109420;28;20177;-70
2022/05/30 00:13:48;;;;;;;1.27;0.40;;;7.50;99.90;;;;;;5099192;28;20043;-70
2022/05/30 00:16:18;;;;;;;0.95;0.45;;;7.40;99.90;;;;;;5114384;28;20067;-70
2022/05/30 00:18:44;;;;;;;0.30;0.30;;;7.50;99.90;;;;;;5095272;28;20051;-72
2022/05/30 00:21:10;;;;;;;;;;;7.40;99.90;;;;;;5102990;28;20398;-70
2022/05/30 00:23:36;;;;;;;0.70;0.30;;;7.30;99.90;;;;;;5112797;28;19919;-70
2022/05/30 00:26:06;;;;;;;0.90;0.22;;;7.20;99.90;;;;;;5099176;28;20044;-70
2022/05/30 00:28:32;;;;;;;0.43;0.25;;;7.30;99.90;;;;;;5077530;28;20047;-70
2022/05/30 00:30:57;;;;;;;2.30;0.40;;;7.20;99.90;;;;;;5096687;28;20044;-70
2022/05/30 00:33:23;;;;;;;2.72;0.55;;;7.20;99.90;;;;;;5080414;28;20100;-70
2022/05/30 00:35:49;;;;;;;0.98;0.43;;;7.20;99.90;;;;;;5104452;28;20054;-70
2022/05/30 00:38:15;;;;;;;1.17;0.40;;;7.00;99.90;;;;;;5086215;28;20118;-69
2022/05/30 00:40:41;;;;;;;0.65;0.30;;;7.00;99.90;;;;;;5098282;28;20406;-69
2022/05/30 00:43:29;;;;;;;0.65;0.30;;;7.00;99.90;;;;;;5104470;28;20040;-69
2022/05/30 00:45:57;;;;;;;0.52;0.32;;;6.90;99.90;;;;;;5103702;28;20471;-69
2022/05/30 00:48:30;;;;;;;0.73;0.20;;;6.90;99.90;;;;;;5096964;28;20462;-70
2022/05/30 00:51:01;;;;;;;0.57;0.30;;;6.90;99.90;;;;;;5103662;28;20530;-70
2022/05/30 00:53:28;;;;;;;0.20;0.20;;;6.80;99.90;;;;;;5109215;28;20047;-70
2022/05/30 00:55:54;;;;;;;0.68;0.28;;;6.80;99.90;;;;;;5108660;28;20498;-70
2022/05/30 00:58:21;;;;;;;0.43;0.25;;;6.80;99.90;;;;;;5093002;28;20111;-70
2022/05/30 01:00:47;;;;;;;0.80;0.30;;;6.70;99.90;;;;;;5107828;28;20503;-70
2022/05/30 01:08:43;;;;;;;1.48;0.40;;;6.90;99.90;;;;;;5102450;28;20052;-69
2022/05/30 01:11:09;;;;;;;1.40;0.43;;;6.90;99.90;;;;;;5081866;28;20039;-70
2022/05/30 01:13:37;;;;;;;0.65;0.30;;;7.00;99.90;;;;;;5110625;28;20464;-70
2022/05/30 01:16:04;;;;;;;0.93;0.40;;;7.00;99.90;;;;;;5111703;27;20047;-70
2022/05/30 01:18:45;;;;;;;1.10;0.50;;;7.10;99.90;;;;;;5106388;28;20035;-69
2022/05/30 01:21:41;;;;;;;1.33;0.47;;;7.10;99.90;;;;;;5096109;27;20355;-70
2022/05/30 01:24:36;;;;;;;0.90;0.30;;;7.00;99.90;;;;;;5105752;28;20054;-70
2022/05/30 01:27:26;;;;;;;0.52;0.30;;;7.10;99.90;;;;;;5106067;28;20093;-70
2022/05/30 01:29:57;;;;;;;0.43;0.20;;;7.00;99.90;;;;;;5095475;28;20042;-70
2022/05/30 01:32:24;;;;;;;0.60;0.28;;;7.00;99.90;;;;;;5107268;28;20044;-70
2022/05/30 01:34:50;;;;;;;0.30;0.20;;;6.90;99.90;;;;;;5110957;28;20504;-70
2022/05/30 01:37:16;;;;;;;0.20;0.20;;;6.80;99.90;;;;;;5108418;28;20036;-70
2022/05/30 01:39:42;;;;;;;0.22;0.20;;;6.80;99.90;;;;;;5110459;28;20046;-70
2022/05/30 01:42:08;;;;;;;0.22;0.10;;;6.60;99.90;;;;;;5111355;28;20043;-70
2022/05/30 01:44:34;;;;;;;0.60;0.20;;;6.60;99.90;;;;;;5105425;28;20543;-70
2022/05/30 01:46:59;;;;;;;0.95;0.20;;;6.60;99.90;;;;;;5101809;28;20135;-70
2022/05/30 01:49:26;;;;;;;0.38;0.20;;;6.50;99.90;;;;;;5108146;28;21669;-70
2022/05/30 01:51:54;;;;;;;0.52;0.25;;;6.40;99.90;;;;;;5107705;28;20490;-70
2022/05/30 01:54:20;;;;;;;0.30;0.10;;;6.50;99.90;;;;;;5111060;28;20040;-70
2022/05/30 01:56:46;;;;;;;0.32;0.15;;;6.40;99.90;;;;;;5108127;28;20112;-70
2022/05/30 01:59:12;;;;;;;0.68;0.20;;;6.40;99.90;;;;;;5106442;28;20039;-70
2022/05/30 02:01:42;;;;;;;0.20;0.10;;;6.40;99.90;;;;;;5099804;28;20050;-70
2022/05/30 02:04:08;;;;;;;0.13;0.10;;;6.30;99.90;;;;;;5093811;28;20027;-70
2022/05/30 02:06:35;;;;;;;0.35;0.20;;;6.30;99.90;;;;;;5102530;28;20118;-69
2022/05/30 02:09:02;;;;;;;0.52;0.43;;;6.20;99.90;;;;;;5110921;28;20498;-70
2022/05/30 02:11:28;;;;;;;0.55;0.20;;;6.20;99.90;;;;;;5110234;28;20070;-70
2022/05/30 02:13:53;;;;;;;0.30;0.17;;;6.10;99.90;;;;;;5096704;28;20040;-70
2022/05/30 02:19:05;;;;;;;0.20;0.10;;;6.10;99.90;;;;;;5109350;28;20048;-70
2022/05/30 02:21:34;;;;;;;1.02;0.20;;;6.10;99.90;;;;;;5105109;28;20526;-70
2022/05/30 02:24:02;;;;;;;0.30;0.13;;;6.20;99.90;;;;;;5097519;28;20058;-70
2022/05/30 02:26:28;;;;;;;0.35;0.20;;;6.10;99.90;;;;;;5106931;28;20359;-70
2022/05/30 02:28:53;;;;;;;0.20;0.17;;;6.10;99.90;;;;;;5083828;28;20044;-70
2022/05/30 02:31:19;;;;;;;0.50;0.20;;;6.10;99.90;;;;;;5107608;28;20302;-70
2022/05/30 02:36:38;;;;;;;0.77;0.30;;;6.10;99.90;;;;;;5103956;28;20035;-70
2022/05/30 02:39:08;;;;;;;0.20;0.20;;;6.00;99.90;;;;;;5106224;28;20046;-70
2022/05/30 02:41:34;;;;;;;0.25;0.10;;;6.00;99.90;;;;;;5093601;28;20083;-70
2022/05/30 02:44:00;;;;;;;0.25;0.20;;;5.90;99.90;;;;;;5107822;28;20114;-70
2022/05/30 02:46:25;;;;;;;0.40;0.20;;;5.90;99.90;;;;;;5108047;28;20130;-70
2022/05/30 02:48:51;;;;;;;0.15;0.15;;;5.90;99.90;;;;;;5097307;28;20044;-69
2022/05/30 02:51:17;;;;;;;0.40;0.20;;;5.90;99.90;;;;;;5109285;28;20194;-69
2022/05/30 02:53:43;;;;;;;0.55;0.20;;;5.90;99.90;;;;;;5101357;28;20088;-69
2022/05/30 02:56:14;;;;;;;0.00;0.00;;;6.10;99.90;;;;;;5088890;28;20088;-69
2022/05/30 02:58:40;;;;;;;0.15;0.15;;;6.00;99.90;;;;;;5104113;28;20105;-70
2022/05/30 03:01:06;;;;;;;0.15;0.10;;;6.10;99.90;;;;;;5101465;28;20040;-70
2022/05/30 03:03:32;;;;;;;0.10;0.10;;;6.20;99.90;;;;;;5109367;28;20043;-70
2022/05/30 03:05:58;;;;;;;0.52;0.20;;;6.10;99.90;;;;;;5098173;28;20044;-70
2022/05/30 03:08:23;;;;;;;0.52;0.30;;;6.30;99.90;;;;;;5100373;28;20047;-70
2022/05/30 03:10:49;;;;;;;1.00;0.30;;;6.40;99.90;;;;;;5094803;28;20055;-70
2022/05/30 03:13:15;;;;;;;0.60;0.40;;;6.60;99.90;;;;;;5106012;28;20076;-70
2022/05/30 03:15:41;;;;;;;0.90;0.30;;;6.70;99.90;;;;;;5078860;28;20412;-70
2022/05/30 03:18:07;;;;;;;0.55;0.30;;;6.80;99.90;;;;;;5110681;28;20050;-70
2022/05/30 03:20:33;;;;;;;0.90;0.35;;;6.80;99.90;;;;;;5106433;28;20039;-70
2022/05/30 03:22:59;;;;;;;0.30;0.30;;;6.90;99.90;;;;;;5104389;28;20047;-70
2022/05/30 03:25:25;;;;;;;0.75;0.20;;;7.10;99.90;;;;;;5093777;28;20032;-70
2022/05/30 03:27:55;;;;;;;0.70;0.20;;;7.00;99.90;;;;;;5108359;28;20078;-70
2022/05/30 03:30:22;;;;;;;1.58;0.25;;;7.10;99.90;;;;;;5113075;28;20036;-71
2022/05/30 03:32:49;;;;;;;0.17;0.13;;;7.20;99.90;;;;;;5107965;28;20074;-67
2022/05/30 03:35:15;;;;;;;0.30;0.20;;;7.20;99.90;;;;;;5110494;28;20043;-70
2022/05/30 03:37:42;;;;;;;0.63;0.25;;;7.30;99.90;;;;;;5104059;28;20551;-70
2022/05/30 03:40:11;;;;;;;0.10;0.05;;;7.30;99.90;;;;;;5106566;28;20126;-70
2022/05/30 03:42:36;;;;;;;0.20;0.00;;;7.30;99.90;;;;;;5097095;28;20051;-71
2022/05/30 03:45:04;;;;;;;0.10;0.10;;;7.40;99.90;;;;;;5104399;28;20119;-70
2022/05/30 03:47:39;;;;;;;0.20;0.20;;;7.40;99.90;;;;;;5091562;28;20531;-70
2022/05/30 03:50:05;;;;;;;0.20;0.10;;;7.40;99.90;;;;;;5113826;28;20055;-70
2022/05/30 03:52:31;;;;;;;0.43;0.10;;;7.40;99.90;;;;;;5112109;28;20181;-70
2022/05/30 03:54:57;;;;;;;0.30;0.20;;;7.50;99.90;;;;;;5111880;28;20485;-70
2022/05/30 03:57:23;;;;;;;0.47;0.20;;;7.50;99.90;;;;;;5108552;28;20039;-70
2022/05/30 03:59:49;;;;;;;0.52;0.30;;;7.60;99.90;;;;;;5107786;28;20036;-70
2022/05/30 04:02:14;;;;;;;0.50;0.25;;;7.50;99.90;;;;;;5106291;28;20055;-70
2022/05/30 04:04:40;;;;;;;1.30;0.40;;;7.50;99.90;;;;;;5101234;28;20460;-70
2022/05/30 04:07:06;;;;;;;1.13;0.50;;;7.60;99.90;;;;;;5107044;28;20063;-70
2022/05/30 04:09:32;;;;;;;1.27;0.38;;;7.60;99.90;;;;;;5104697;28;20475;-70
2022/05/30 04:11:58;;;;;;;1.17;0.38;;;7.70;99.90;;;;;;5101120;28;20055;-70
2022/05/30 04:14:23;;;;;;;0.43;0.10;;;7.60;99.90;;;;;;5093616;28;20047;-70
2022/05/30 04:16:50;;;;;;;1.00;0.40;;;7.60;99.90;;;;;;5099493;28;20722;-70
2022/05/30 04:19:16;;;;;;;0.93;0.30;;;7.60;99.90;;;;;;5101695;28;20113;-70
2022/05/30 04:21:42;;;;;;;1.27;0.60;;;7.80;99.90;;;;;;5094496;28;20048;-70
2022/05/30 04:24:08;;;;;;;1.25;0.50;;;7.80;99.90;;;;;;5095872;27;20048;-70
2022/05/30 04:26:33;;;;;;;0.85;0.40;;;7.70;99.90;;;;;;5098371;28;20043;-70
2022/05/30 04:28:59;;;;;;;1.30;0.40;;;7.80;99.90;;;;;;5109254;28;20206;-70
2022/05/30 04:31:25;;;;;;;1.30;0.30;;;7.90;99.90;;;;;;5096149;28;20117;-70
2022/05/30 04:33:51;;;;;;;0.45;0.40;;;7.80;99.90;;;;;;5106355;28;20119;-70
2022/05/30 04:36:17;;;;;;;0.43;0.20;;;8.00;99.90;;;;;;5104626;28;20218;-70
2022/05/30 04:38:43;;;;;;;0.40;0.20;;;8.00;99.90;;;;;;5098700;28;20549;-70
2022/05/30 04:41:08;;;;;;;0.70;0.30;;;8.10;99.90;;;;;;5098587;28;20095;-70
2022/05/30 04:43:34;;;;;;;0.20;0.10;;;8.10;99.90;;;;;;5097370;28;20040;-70
2022/05/30 04:46:16;;;;;;;0.10;0.10;;;8.10;99.90;;;;;;5106678;28;20039;-70
2022/05/30 04:48:44;;;;;;;0.20;0.15;;;8.10;99.90;;;;;;5110889;28;20048;-69
2022/05/30 04:51:10;;;;;;;0.50;0.20;;;8.20;99.90;;;;;;5101883;27;20048;-69
2022/05/30 04:53:36;;;;;;;0.68;0.30;;;8.30;99.90;;;;;;5098603;28;20048;-68
2022/05/30 04:56:03;;;;;;;0.30;0.20;;;8.20;99.90;;;;;;5111175;28;20118;-69
2022/05/30 04:58:29;;;;;;;0.10;0.10;;;8.20;99.90;;;;;;5097834;28;20082;-69
2022/05/30 05:00:58;;;;;;;;;;;8.40;99.90;;;;;;5104618;28;20047;-69
2022/05/30 05:03:24;;;;;;;0.30;0.20;;;8.40;99.90;;;;;;5111160;28;20014;-69
2022/05/30 05:05:50;;;;;;;0.38;0.30;;;8.40;99.90;;;;;;5112832;28;20104;-69
2022/05/30 05:08:15;;;;;;;0.82;0.20;;;8.50;99.90;;;;;;5113480;27;20039;-69
2022/05/30 05:10:52;;;;;;;0.53;0.20;;;8.40;99.90;;;;;;5111777;28;20108;-69
2022/05/30 05:13:18;;;;;;;0.43;0.22;;;8.40;99.90;;;;;;5100547;28;20266;-73
2022/05/30 05:15:43;;;;;;;0.30;0.30;;;8.60;99.90;;;;;;5104209;28;20384;-74
2022/05/30 05:18:10;;;;;;;1.65;0.47;;;8.60;99.90;;;;;;5091520;28;20097;-74
2022/05/30 05:20:43;;;;;;;1.40;0.75;;;8.40;99.90;;;;;;5100617;28;20079;-74
2022/05/30 05:23:11;;;;;;;1.08;0.60;;;8.50;99.90;;;;;;5097013;28;20032;-74
2022/05/30 05:25:38;;;;;;;1.77;0.60;;;8.40;99.90;;;;;;5092519;28;20048;-74
2022/05/30 05:28:04;;;;;;;0.50;0.30;;;8.30;99.90;;;;;;5072610;28;20126;-74
2022/05/30 05:30:31;;;;;;;0.70;0.35;;;8.40;99.90;;;;;;5089908;28;20118;-73
2022/05/30 05:32:57;;;;;;;1.55;0.60;;;8.50;99.90;;;;;;5091579;28;20479;-74
2022/05/30 05:35:22;;;;;;;1.08;0.50;;;8.40;99.90;;;;;;5090530;28;20535;-74
2022/05/30 05:37:48;;;;;;;1.77;0.60;;;8.50;99.90;;;;;;5075113;28;20078;-73
2022/05/30 05:40:14;;;;;;;1.98;0.68;;;8.50;99.90;;;;;;5090005;28;20040;-72
2022/05/30 05:42:40;;;;;;;0.70;0.40;;;8.60;99.90;;;;;;5093679;28;20167;-74
2022/05/30 05:45:07;;;;;;;0.98;0.50;;;8.70;99.90;;;;;;5090061;28;20051;-73
2022/05/30 05:47:34;;;;;;;1.08;0.40;;;8.90;99.90;;;;;;5095659;28;20077;-73
2022/05/30 05:50:00;;;;;;;1.23;0.60;;;8.90;99.90;;;;;;5091753;28;20072;-74
2022/05/30 05:52:28;;;;;;;1.27;0.70;;;9.00;99.90;;;;;;5098725;28;20128;-74
2022/05/30 05:54:55;;;;;;;1.40;0.47;;;9.10;99.90;;;;;;5097785;28;20082;-73
2022/05/30 05:57:22;;;;;;;0.75;0.45;;;9.20;99.90;;;;;;5097912;28;20052;-73
2022/05/30 05:59:47;;;;;;;1.38;0.50;;;9.40;99.90;;;;;;5105394;28;20509;-74
2022/05/30 06:02:13;;;;;;;0.73;0.40;;;9.60;99.90;;;;;;5079723;28;20039;-75
2022/05/30 06:04:39;;;;;;;1.35;0.60;;;9.60;99.90;;;;;;5103296;28;20047;-74
2022/05/30 06:07:06;;;;;;;2.33;0.63;;;9.60;99.90;;;;;;5096909;28;20117;-74
2022/05/30 06:09:32;;;;;;;1.33;0.43;;;9.70;99.90;;;;;;5111471;28;20058;-74
2022/05/30 06:11:58;;;;;;;1.33;0.55;;;9.90;99.90;;;;;;5112258;28;20036;-74
2022/05/30 06:14:24;;;;;;;0.70;0.50;;;10.00;99.90;;;;;;5111372;28;20052;-75
2022/05/30 06:16:50;;;;;;;1.35;0.50;;;10.00;99.90;;;;;;5111198;28;20050;-74
2022/05/30 06:19:16;;;;;;;3.28;0.60;;;10.20;99.90;;;;;;5109696;28;20041;-73
2022/05/30 06:21:41;;;;;;;2.08;0.70;;;10.10;99.90;;;;;;5107590;27;20507;-74
2022/05/30 06:24:09;;;;;;;2.10;0.70;;;10.20;99.90;;;;;;5099078;28;20104;-74
2022/05/30 06:26:35;;;;;;;0.65;0.45;;;10.20;99.90;;;;;;5096708;28;20407;-74
2022/05/30 06:29:01;;;;;;;1.58;0.50;;;10.30;99.90;;;;;;5087164;28;20047;-74
2022/05/30 06:31:30;;;;;;;1.30;0.50;;;10.50;99.90;;;;;;5103192;28;20043;-73
2022/05/30 06:33:58;;;;;;;1.38;0.52;;;10.60;99.90;;;;;;5103637;28;20140;-74
2022/05/30 06:36:24;;;;;;;0.55;0.30;;;10.70;99.90;;;;;;5103977;28;20062;-74
2022/05/30 06:38:51;;;;;;;1.42;0.35;;;10.80;99.90;;;;;;5100636;28;20046;-73
2022/05/30 06:41:21;;;;;;;0.75;0.20;;;10.80;99.90;;;;;;5110525;28;20384;-74
2022/05/30 06:43:47;;;;;;;2.30;0.30;;;10.80;99.90;;;;;;5097927;28;20502;-74
2022/05/30 06:46:14;;;;;;;1.40;0.35;;;10.80;99.90;;;;;;5103637;28;20048;-74
2022/05/30 06:48:41;;;;;;;0.90;0.47;;;10.80;99.90;;;;;;5106719;28;20576;-73
2022/05/30 06:51:08;;;;;;;;;;;11.00;99.90;;;;;;5068312;28;20093;-75
2022/05/30 06:53:34;;;;;;;1.58;0.50;;;10.90;99.90;;;;;;5078763;28;20029;-74
2022/05/30 06:56:00;;;;;;;2.08;0.50;;;10.90;99.90;;;;;;5106458;28;20118;-75
2022/05/30 06:58:27;;;;;;;0.70;0.40;;;10.90;99.90;;;;;;5091744;28;20131;-74
2022/05/30 07:01:00;;;;;;;1.27;0.32;;;10.90;99.90;;;;;;5094146;28;20260;-74
2022/05/30 07:03:26;;;;;;;2.72;0.60;;;10.80;99.90;;;;;;5108798;28;20150;-74
2022/05/30 07:05:52;;;;;;;1.88;0.70;;;10.80;99.90;;;;;;5094955;28;20123;-75
2022/05/30 07:08:18;;;;;;;1.33;0.47;;;10.70;99.90;;;;;;5109728;28;20126;-75
2022/05/30 07:10:45;;;;;;;2.10;0.75;;;10.70;99.90;;;;;;5092955;28;20043;-75
2022/05/30 07:13:12;;;;;;;2.15;0.63;;;10.60;99.90;;;;;;5097438;28;20046;-74
2022/05/30 07:15:38;;;;;;;1.52;0.50;;;10.60;99.90;;;;;;5102965;28;20086;-74
2022/05/30 07:18:12;;;;;;;2.95;0.40;;;10.50;99.90;;;;;;5101475;28;20411;-74
2022/05/30 07:20:39;;;;;;;1.55;0.50;;;10.20;99.90;;;;;;5094034;28;20047;-74
2022/05/30 07:23:05;;;;;;;3.65;0.60;;;10.30;99.90;;;;;;5104827;28;20449;-74
2022/05/30 07:25:35;;;;;;;2.88;0.70;;;10.20;99.90;;;;;;5089305;28;20517;-73
2022/05/30 07:28:02;;;;;;;1.27;0.50;;;10.10;99.90;;;;;;5094347;28;20046;-73
2022/05/30 07:30:27;;;;;;;;;;;10.00;99.90;;;;;;5100027;28;20390;-73
2022/05/30 07:32:55;;;;;;;0.70;0.30;;;9.90;99.90;;;;;;5076794;28;19972;-73
2022/05/30 07:35:20;;;;;;;0.73;0.43;;;10.10;99.90;;;;;;5107040;28;20574;-73
2022/05/30 07:37:46;;;;;;;0.43;0.35;;;10.20;99.90;;;;;;5107160;28;20116;-74
2022/05/30 07:40:12;;;;;;;0.30;0.30;;;10.10;99.90;;;;;;5096565;28;20114;-73
2022/05/30 07:42:38;;;;;;;;;;;10.30;99.90;;;;;;5103169;28;20047;-73
2022/05/30 07:45:04;;;;;;;0.55;0.20;;;10.30;99.90;;;;;;5109731;28;19926;-73
2022/05/30 07:47:29;;;;;;;0.47;0.22;;;10.50;99.90;;;;;;5108331;28;20505;-73
2022/05/30 07:50:02;;;;;;;1.33;0.32;;;10.90;99.90;;;;;;5110699;28;20040;-73
2022/05/30 07:52:30;;;;;;;0.90;0.30;;;11.20;99.90;;;;;;5107724;28;20116;-73
2022/05/30 07:54:56;;;;;;;2.35;0.60;;;11.90;99.90;;;;;;5109069;28;20122;-73
2022/05/30 07:57:50;;;;;;;2.17;0.50;;;12.00;99.90;;;;;;5108937;28;20044;-73
2022/05/30 08:00:08;;;;;;;1.75;0.50;;;12.00;99.90;;;;;;5109100;28;20483;-73
2022/05/30 08:02:34;;;;;;;0.73;0.38;;;12.20;99.90;;;;;;5110128;28;20125;-73
2022/05/30 08:05:00;;;;;;;2.83;0.55;;;12.30;99.90;;;;;;5099751;28;20054;-73
2022/05/30 08:07:25;;;;;;;1.27;0.40;;;12.30;99.90;;;;;;5101429;28;20151;-73
2022/05/30 08:09:51;;;;;;;1.95;0.43;;;12.30;99.90;;;;;;5093680;28;20114;-73
2022/05/30 08:12:17;;;;;;;3.70;0.60;;;12.20;99.90;;;;;;5092234;28;20483;-73
2022/05/30 08:14:42;;;;;;;1.90;0.50;;;12.10;99.90;;;;;;5098145;28;20846;-74
2022/05/30 08:17:08;;;;;;;0.47;0.30;;;12.00;99.90;;;;;;5096888;28;20058;-73
2022/05/30 08:19:34;;;;;;;1.60;0.70;;;11.90;99.90;;;;;;5100187;28;20100;-73
2022/05/30 08:22:04;;;;;;;1.20;0.55;;;11.90;99.90;;;;;;5100940;28;20402;-73
2022/05/30 08:24:37;;;;;;;1.63;0.40;;;12.00;99.90;;;;;;5102499;28;20484;-74
2022/05/30 08:27:03;;;;;;;0.85;0.43;;;12.10;99.90;;;;;;5101591;28;20364;-73
2022/05/30 08:29:30;;;;;;;0.98;0.40;;;12.20;99.90;;;;;;5099084;28;20031;-73
2022/05/30 08:31:56;;;;;;;2.15;0.68;;;12.20;99.90;;;;;;5111651;27;20078;-72
2022/05/30 08:34:22;;;;;;;2.83;0.73;;;11.70;99.90;;;;;;5094725;28;20128;-73
2022/05/30 08:36:47;;;;;;;1.65;0.38;;;11.30;99.90;;;;;;5097239;28;20123;-73
2022/05/30 08:42:00;;;;;;;3.90;0.75;;;10.90;99.90;;;;;;5088987;28;20048;-73
2022/05/30 08:44:29;;;;;;;1.10;0.30;;;10.90;99.90;;;;;;5097476;28;20510;-73
2022/05/30 08:47:06;;;;;;;2.05;0.50;;;10.90;99.90;;;;;;5080148;28;20044;-73
2022/05/30 08:49:45;;;;;;;1.90;0.50;;;10.80;99.90;;;;;;5108814;28;20059;-73
2022/05/30 08:52:15;;;;;;;1.27;0.40;;;10.70;99.90;;;;;;5104052;28;20436;-73
2022/05/30 08:54:55;;;;;;;1.35;0.38;;;10.70;99.90;;;;;;5092837;28;20084;-73
2022/05/30 08:57:39;;;;;;;2.05;0.60;;;10.80;99.90;;;;;;5098106;28;20046;-73
2022/05/30 09:00:22;;;;;;;1.63;0.50;;;10.70;99.90;;;;;;5102621;28;20532;-73
2022/05/30 09:02:58;;;;;;;1.27;0.40;;;10.70;99.90;;;;;;5102758;28;20036;-74
2022/05/30 09:05:43;;;;;;;1.20;0.40;;;10.50;99.90;;;;;;5109800;28;20039;-74
2022/05/30 09:08:19;;;;;;;1.15;0.38;;;10.60;99.90;;;;;;5093971;28;20036;-74
2022/05/30 09:10:58;;;;;;;1.50;0.40;;;10.80;99.90;;;;;;5091224;28;20166;-74
2022/05/30 09:13:38;;;;;;;0.43;0.30;;;11.00;99.90;;;;;;5090554;28;20481;-73
2022/05/30 09:16:37;;;;;;;1.38;0.50;;;11.00;99.90;;;;;;5100755;28;20059;-73
2022/05/30 09:19:07;;;;;;;1.27;0.45;;;10.90;99.90;;;;;;5101887;28;20048;-73
2022/05/30 09:21:35;;;;;;;0.75;0.40;;;11.00;99.90;;;;;;5106546;28;20070;-73
2022/05/30 09:24:02;;;;;;;2.92;0.40;;;11.10;99.90;;;;;;5100160;28;20083;-73
2022/05/30 09:26:34;;;;;;;1.67;0.55;;;11.10;99.90;;;;;;5109250;28;20585;-73
2022/05/30 09:29:21;;;;;;;2.22;0.50;;;11.30;99.90;;;;;;5110212;28;20104;-73
2022/05/30 09:32:08;;;;;;;1.45;0.50;;;11.40;99.90;;;;;;5082154;28;20043;-73
2022/05/30 09:34:45;;;;;;;2.45;0.70;;;11.50;99.90;;;;;;5095997;28;20043;-73
2022/05/30 09:37:33;;;;;;;1.50;0.50;;;11.60;99.90;;;;;;5097705;28;20039;-73
2022/05/30 09:39:59;;;;;;;0.55;0.30;;;11.70;99.90;;;;;;5096883;28;20040;-73
2022/05/30 09:42:30;;;;;;;1.38;0.50;;;11.90;99.90;;;;;;5100806;28;20040;-73
2022/05/30 09:45:06;;;;;;;1.23;0.43;;;12.00;99.90;;;;;;5102006;28;20043;-73
2022/05/30 09:47:32;;;;;;;1.00;0.50;;;12.20;99.90;;;;;;5105162;28;20376;-73
2022/05/30 09:50:19;;;;;;;1.10;0.35;;;12.30;99.90;;;;;;5101225;28;20047;-73
2022/05/30 09:52:46;;;;;;;1.25;0.50;;;12.50;99.90;;;;;;5111393;27;20444;-74
2022/05/30 09:55:33;;;;;;;1.15;0.40;;;12.80;99.90;;;;;;5110445;28;20043;-74
2022/05/30 09:58:00;;;;;;;2.30;0.70;;;12.90;99.90;;;;;;5096851;28;20116;-73
2022/05/30 10:00:29;;;;;;;0.68;0.38;;;13.00;99.90;;;;;;5098039;28;20051;-73
2022/05/30 10:03:09;;;;;;;2.38;0.47;;;13.10;99.90;;;;;;5103861;28;20428;-74
2022/05/30 10:05:37;;;;;;;1.33;0.50;;;13.20;99.90;;;;;;5089883;28;20047;-73
2022/05/30 10:08:05;;;;;;;2.30;0.50;;;13.40;99.90;;;;;;5090323;28;20047;-75
2022/05/30 10:10:40;;;;;;;0.70;0.32;;;13.50;99.90;;;;;;5102070;28;20039;-73
2022/05/30 10:13:07;;;;;;;0.82;0.40;;;13.80;99.90;;;;;;5087892;28;20051;-73
2022/05/30 10:15:53;;;;;;;0.68;0.40;;;13.50;99.90;;;;;;5102947;28;20055;-73
2022/05/30 10:18:25;;;;;;;0.45;0.28;;;13.40;99.90;;;;;;5110695;28;20040;-72
2022/05/30 10:21:12;;;;;;;0.95;0.30;;;13.40;99.90;;;;;;5110244;28;20066;-73
2022/05/30 10:30:09;;;;;;;1.40;0.35;;;12.70;99.90;;;;;;5096588;28;20563;-73
2022/05/30 10:32:46;;;;;;;1.50;0.25;;;12.30;99.90;;;;;;5092448;28;20415;-73
2022/05/30 10:35:45;;;;;;;2.17;0.30;;;12.10;99.90;;;;;;5108697;28;20035;-74
2022/05/30 10:38:20;;;;;;;2.83;0.60;;;12.10;99.90;;;;;;5101569;28;20047;-73
2022/05/30 10:41:03;;;;;;;0.98;0.50;;;11.60;99.90;;;;;;5095104;28;20127;-73
2022/05/30 10:43:55;;;;;;;1.48;0.50;;;11.30;99.90;;;;;;5109434;28;20043;-73
2022/05/30 10:46:39;;;;;;;1.27;0.50;;;11.10;99.90;;;;;;5098935;28;20046;-72
2022/05/30 10:49:10;;;;;;;0.47;0.30;;;10.90;99.90;;;;;;5095686;28;20047;-72
2022/05/30 10:51:44;;;;;;;2.13;0.40;;;10.80;99.90;;;;;;5109563;28;20050;-73
2022/05/30 10:54:32;;;;;;;1.20;0.40;;;10.80;99.90;;;;;;5109314;28;20063;-73
2022/05/30 10:57:08;;;;;;;0.20;0.20;;;10.80;99.90;;;;;;5092072;28;20036;-72
2022/05/30 10:59:37;;;;;;;;;;;10.80;99.90;;;;;;5100582;28;20040;-73
2022/05/30 11:02:11;;;;;;;1.23;0.20;;;11.00;99.90;;;;;;5108524;28;19924;-72
2022/05/30 11:04:52;;;;;;;0.47;0.30;;;11.20;99.90;;;;;;5089828;28;20058;-72
2022/05/30 11:07:58;;;;;;;0.35;0.22;;;11.30;99.90;;;;;;5106020;28;20071;-72
2022/05/30 11:10:39;;;;;;;0.65;0.30;;;11.60;99.90;;;;;;5108556;28;20044;-73
2022/05/30 11:13:33;;;;;;;0.17;0.13;;;11.80;99.90;;;;;;5103730;28;20044;-73
2022/05/30 11:16:24;;;;;;;0.20;0.13;;;11.80;99.90;;;;;;5097886;28;20134;-73
2022/05/30 11:18:59;;;;;;;0.88;0.20;;;11.90;99.90;;;;;;5107451;28;20047;-73
2022/05/30 11:21:29;;;;;;;0.35;0.20;;;11.90;99.90;;;;;;5099229;28;20110;-73
2022/05/30 11:23:54;;;;;;;1.50;0.45;;;12.00;99.90;;;;;;5096943;28;20127;-73
2022/05/30 11:27:06;;;;;;;0.40;0.22;;;12.10;99.90;;;;;;5096249;28;20130;-74
2022/05/30 11:29:53;;;;;;;0.75;0.20;;;12.00;99.90;;;;;;5083180;28;20048;-74
2022/05/30 11:32:25;;;;;;;0.77;0.20;;;12.10;99.90;;;;;;5102399;28;20127;-73
2022/05/30 11:35:09;;;;;;;0.15;0.10;;;12.10;99.90;;;;;;5083089;28;20082;-73
2022/05/30 11:37:47;;;;;;;0.85;0.20;;;12.20;99.90;;;;;;5094986;28;20040;-73
2022/05/30 11:40:44;;;;;;;0.30;0.10;;;12.10;99.90;;;;;;5097355;28;20388;-74
2022/05/30 11:43:28;;;;;;;0.63;0.10;;;12.20;99.90;;;;;;5096195;28;20039;-74
2022/05/30 11:46:02;;;;;;;0.20;0.10;;;12.50;99.90;;;;;;5104107;28;20054;-73
2022/05/30 11:48:53;;;;;;;0.22;0.20;;;12.50;99.90;;;;;;5103800;28;20044;-74
2022/05/30 11:51:38;;;;;;;0.20;0.13;;;12.80;99.90;;;;;;5094932;28;20120;-74
2022/05/30 11:54:18;;;;;;;0.35;0.10;;;12.80;99.90;;;;;;5098938;28;20514;-74
2022/05/30 11:57:10;;;;;;;0.10;0.10;;;13.10;99.90;;;;;;5089978;28;20123;-74
2022/05/30 11:59:47;;;;;;;0.10;0.10;;;12.90;99.90;;;;;;5098932;28;20032;-74
2022/05/30 12:02:20;;;;;;;0.30;0.10;;;12.90;99.90;;;;;;5097138;28;20044;-74
2022/05/30 12:05:08;;;;;;;0.52;0.10;;;12.80;99.90;;;;;;5098593;28;20338;-74
2022/05/30 12:08:00;;;;;;;0.85;0.10;;;12.60;99.90;;;;;;5096486;28;20119;-73
2022/05/30 12:10:55;;;;;;;0.30;0.15;;;12.50;99.90;;;;;;5095292;28;20049;-73
2022/05/30 12:13:29;;;;;;;1.98;0.38;;;12.20;99.90;;;;;;5093000;28;20123;-73
2022/05/30 12:16:15;;;;;;;0.63;0.30;;;11.90;99.90;;;;;;5091701;28;20139;-74
2022/05/30 12:24:18;;;;;;;1.27;0.30;;;11.40;99.90;;;;;;5081672;28;20131;-74
2022/05/30 12:26:56;;;;;;;1.10;0.30;;;11.20;99.90;;;;;;5094243;28;20048;-74
2022/05/30 12:29:42;;;;;;;0.55;0.30;;;11.40;99.90;;;;;;5075591;28;20056;-74
2022/05/30 12:32:36;;;;;;;0.80;0.45;;;11.50;99.90;;;;;;5089266;28;20098;-73
2022/05/30 12:35:13;;;;;;;0.20;0.20;;;11.50;99.90;;;;;;5098004;28;20039;-73
2022/05/30 12:37:45;;;;;;;1.00;0.20;;;11.70;99.90;;;;;;5112289;28;20047;-73
2022/05/30 12:40:30;;;;;;;0.75;0.22;;;11.90;99.90;;;;;;5080004;28;20074;-73
2022/05/30 12:43:22;;;;;;;0.57;0.22;;;12.20;99.90;;;;;;5092189;28;20479;-74
2022/05/30 12:46:09;;;;;;;1.67;0.60;;;12.40;99.90;;;;;;5106615;28;20051;-75
2022/05/30 12:48:50;;;;;;;1.55;0.50;;;12.30;99.90;;;;;;5113856;28;20398;-70
2022/05/30 12:51:41;;;;;;;0.82;0.50;;;12.30;99.90;;;;;;5098114;28;20052;-71
2022/05/30 12:54:07;;;;;;;1.05;0.35;;;12.50;99.90;;;;;;5105273;28;20054;-70
2022/05/30 12:56:39;;;;;;;1.45;0.50;;;12.50;99.90;;;;;;5097751;28;20039;-70
2022/05/30 12:59:11;;;;;;;0.88;0.30;;;12.60;99.90;;;;;;5094816;28;20092;-70
2022/05/30 13:01:42;;;;;;;1.10;0.50;;;12.80;99.90;;;;;;5098113;28;20081;-69
2022/05/30 13:04:08;;;;;;;1.83;0.40;;;12.90;99.90;;;;;;5107270;28;20047;-69
2022/05/30 13:06:50;;;;;;;0.63;0.40;;;12.80;99.90;;;;;;5112276;28;20051;-69
2022/05/30 13:09:40;;;;;;;0.57;0.22;;;12.70;99.90;;;;;;5111356;28;20036;-69
2022/05/30 13:12:14;;;;;;;1.02;0.32;;;12.60;99.90;;;;;;5087472;28;20051;-69
2022/05/30 13:14:48;;;;;;;1.08;0.40;;;12.20;99.90;;;;;;5111744;28;20125;-69
2022/05/30 13:17:26;;;;;;;1.33;0.38;;;12.00;99.90;;;;;;5102462;28;20056;-69
2022/05/30 13:20:00;;;;;;;2.92;0.60;;;11.80;99.90;;;;;;5111298;28;20065;-70
2022/05/30 13:22:39;;;;;;;1.05;0.40;;;11.60;99.90;;;;;;5104084;28;20043;-70
2022/05/30 13:25:09;;;;;;;1.38;0.40;;;11.60;99.90;;;;;;5092223;28;20052;-70
2022/05/30 13:27:35;;;;;;;0.65;0.40;;;11.60;99.90;;;;;;5111506;28;20047;-71
2022/05/30 13:30:04;;;;;;;1.27;0.50;;;11.40;99.90;;;;;;5112866;28;20043;-70
2022/05/30 13:32:31;;;;;;;0.65;0.30;;;11.40;99.90;;;;;;5097160;28;20079;-71
2022/05/30 13:35:00;;;;;;;1.40;0.40;;;11.60;99.90;;;;;;5112753;28;20071;-71
2022/05/30 13:37:30;;;;;;;0.73;0.30;;;11.50;99.90;;;;;;5111515;28;20403;-71
2022/05/30 13:40:08;;;;;;;0.30;0.30;;;11.80;99.90;;;;;;5095162;28;20135;-69